Airport View

Enter AWOS ICAO identifier for current METAR.

ex. KFNL

KLHX 031753Z AUTO 14008G14KT 10SM CLR 31/12 A3014 RMK AO2 SLP138 T03060117 10306 20144 58007 TSNO

3 Jul 2020 18:07

Frequency: 135.525

Phone: 719-384-5961

Other Area AWOS: KLAA - KPUB - KTAD - KSPD

TAF KPUB 031741Z 0318/0418 10008KT P6SM FEW100 SCT200 FM032100 12011KT P6SM SCT100 SCT200 FM032300 12012KT P6SM VCTS SCT090CB BKN150 FM040200 33007KT P6SM BKN100 FM040600 VRB06KT P6SM BKN150 FM041300 VRB04KT P6SM SCT150